Time;durP1;ratioP1;P1;durP2;ratioP2;P2;SDS_P1;SDS_P2;PMS_P1;PMS_P2;Temp;Humidity;BMP_temperature;BMP_pressure;BME280_temperature;BME280_humidity;BME280_pressure;Samples;Min_cycle;Max_cycle;Signal;HPM_P1;HPM_P2
2022/05/01 00:01:04;;;;;;;7.90;6.13;;;9.60;1.00;;;;;;5073453;28;20206;-58
2022/05/01 00:03:31;;;;;;;10.33;7.00;;;9.50;1.00;;;;;;5071078;28;20191;-58
2022/05/01 00:06:00;;;;;;;10.13;6.60;;;9.30;1.00;;;;;;5069078;28;20221;-58
2022/05/01 00:08:27;;;;;;;11.60;6.80;;;9.30;1.00;;;;;;5070526;28;20662;-58
2022/05/01 00:10:55;;;;;;;9.40;7.03;;;9.20;1.00;;;;;;5073709;28;20203;-57
2022/05/01 00:13:40;;;;;;;8.63;6.87;;;9.10;1.00;;;;;;5070379;28;20195;-57
2022/05/01 00:16:08;;;;;;;10.33;6.77;;;9.00;1.00;;;;;;5073606;28;20216;-58
2022/05/01 00:18:35;;;;;;;9.20;6.87;;;8.90;1.00;;;;;;5076672;28;20194;-57
2022/05/01 00:21:05;;;;;;;11.53;7.97;;;8.80;1.00;;;;;;5072071;28;20201;-58
2022/05/01 00:23:32;;;;;;;12.93;7.60;;;8.70;1.00;;;;;;5058498;28;20190;-58
2022/05/01 00:26:00;;;;;;;9.10;7.67;;;8.60;1.00;;;;;;5062523;28;20195;-58
2022/05/01 00:28:28;;;;;;;11.50;7.43;;;8.60;1.00;;;;;;5049339;28;20214;-58
2022/05/01 00:30:57;;;;;;;8.93;7.37;;;8.50;1.00;;;;;;5067509;28;20195;-59
2022/05/01 00:36:28;;;;;;;9.67;7.33;;;8.40;1.00;;;;;;5069042;28;20195;-60
2022/05/01 00:39:01;;;;;;;10.40;7.90;;;8.40;1.00;;;;;;5043643;28;20268;-59
2022/05/01 00:41:30;;;;;;;12.33;7.73;;;8.30;1.00;;;;;;5041250;28;20285;-59
2022/05/01 00:43:58;;;;;;;11.00;7.70;;;8.30;1.00;;;;;;5069512;28;20273;-58
2022/05/01 00:46:25;;;;;;;8.53;7.50;;;8.30;1.00;;;;;;5070601;28;20630;-59
2022/05/01 00:48:52;;;;;;;12.17;7.60;;;8.20;1.00;;;;;;5070223;28;20195;-59
2022/05/01 00:51:20;;;;;;;10.67;7.57;;;8.10;1.00;;;;;;5060576;28;21225;-59
2022/05/01 00:53:49;;;;;;;11.63;7.73;;;8.10;1.00;;;;;;5069387;28;20198;-59
2022/05/01 00:56:17;;;;;;;8.43;7.30;;;8.10;1.00;;;;;;5070631;28;20207;-59
2022/05/01 00:58:46;;;;;;;9.30;7.30;;;8.00;1.00;;;;;;5070541;28;20203;-60
2022/05/01 01:01:17;;;;;;;11.90;7.83;;;7.90;1.00;;;;;;5070450;28;20217;-58
2022/05/01 01:03:44;;;;;;;9.17;7.20;;;7.90;1.00;;;;;;5040499;28;20805;-59
2022/05/01 01:06:12;;;;;;;10.07;7.47;;;7.80;1.00;;;;;;5042126;28;20721;-58
2022/05/01 01:08:39;;;;;;;7.93;6.97;;;7.90;1.00;;;;;;5065245;28;20272;-58
2022/05/01 01:11:06;;;;;;;11.87;7.63;;;7.90;1.00;;;;;;5045267;28;20202;-58
2022/05/01 01:13:33;;;;;;;9.27;7.53;;;7.90;1.00;;;;;;5057514;28;20268;-58
2022/05/01 01:16:00;;;;;;;7.73;6.83;;;7.90;1.00;;;;;;5042475;28;20202;-58
2022/05/01 01:18:28;;;;;;;11.83;7.37;;;7.90;1.00;;;;;;5060702;28;20195;-58
2022/05/01 01:20:55;;;;;;;10.10;7.37;;;8.00;1.00;;;;;;5062801;28;20668;-58
2022/05/01 01:23:23;;;;;;;9.67;7.40;;;8.00;1.00;;;;;;5062250;28;20222;-59
2022/05/01 01:25:50;;;;;;;9.93;7.23;;;8.00;1.00;;;;;;5053151;28;20206;-58
2022/05/01 01:28:18;;;;;;;12.23;7.30;;;8.00;1.00;;;;;;5044939;28;20229;-58
2022/05/01 01:33:31;;;;;;;8.07;7.20;;;8.20;1.00;;;;;;5064910;28;20211;-58
2022/05/01 01:36:02;;;;;;;9.97;7.27;;;8.30;1.00;;;;;;5048529;28;20190;-57
2022/05/01 01:38:30;;;;;;;10.20;8.03;;;8.40;1.00;;;;;;5064195;28;20245;-58
2022/05/01 01:41:00;;;;;;;8.03;7.20;;;8.40;1.00;;;;;;5064602;28;20241;-58
2022/05/01 01:43:28;;;;;;;8.90;6.80;;;8.50;1.00;;;;;;5044805;28;20688;-58
2022/05/01 01:45:56;;;;;;;9.10;7.30;;;8.60;1.00;;;;;;5067111;28;20943;-58
2022/05/01 01:48:24;;;;;;;8.23;6.63;;;8.60;1.00;;;;;;5057062;28;20207;-59
2022/05/01 01:50:57;;;;;;;9.83;6.70;;;8.60;1.00;;;;;;5062714;28;20205;-59
2022/05/01 01:53:24;;;;;;;9.50;7.20;;;8.60;1.00;;;;;;5065979;28;20665;-59
2022/05/01 01:55:51;;;;;;;8.23;6.70;;;8.70;1.00;;;;;;5061839;28;20272;-59
2022/05/01 01:58:19;;;;;;;11.10;7.43;;;8.60;1.00;;;;;;5061141;28;20207;-59
2022/05/01 02:00:46;;;;;;;10.23;6.80;;;8.70;1.00;;;;;;5060298;28;20218;-59
2022/05/01 02:03:13;;;;;;;7.83;6.93;;;8.60;1.00;;;;;;5062765;28;20199;-60
2022/05/01 02:05:40;;;;;;;7.80;6.83;;;8.60;1.00;;;;;;5059424;28;20281;-61
2022/05/01 02:08:07;;;;;;;7.70;6.20;;;8.60;1.00;;;;;;5058209;28;20685;-58
2022/05/01 02:10:35;;;;;;;8.70;7.07;;;8.60;1.00;;;;;;5043063;28;20230;-58
2022/05/01 02:13:03;;;;;;;9.13;6.90;;;8.60;1.00;;;;;;5040441;28;20280;-58
2022/05/01 02:15:30;;;;;;;8.93;6.80;;;8.60;1.00;;;;;;5029203;28;20201;-59
2022/05/01 02:17:58;;;;;;;9.43;6.13;;;8.70;1.00;;;;;;5050087;28;20218;-59
2022/05/01 02:20:27;;;;;;;8.20;6.90;;;8.70;1.00;;;;;;5067733;28;20253;-59
2022/05/01 02:22:54;;;;;;;11.77;7.03;;;8.70;1.00;;;;;;5048804;28;20245;-58
2022/05/01 02:25:21;;;;;;;8.03;6.37;;;8.70;1.00;;;;;;5066861;28;20282;-59
2022/05/01 02:27:48;;;;;;;11.33;6.57;;;8.60;1.00;;;;;;5067681;28;20293;-58
2022/05/01 02:30:16;;;;;;;11.60;6.60;;;8.70;1.00;;;;;;5067708;28;20264;-59
2022/05/01 02:32:42;;;;;;;8.03;6.20;;;8.60;1.00;;;;;;5058660;28;20250;-59
2022/05/01 02:35:10;;;;;;;9.00;6.63;;;8.70;1.00;;;;;;5050768;28;20747;-59
2022/05/01 02:37:37;;;;;;;7.43;6.30;;;8.70;1.00;;;;;;5067749;28;20209;-59
2022/05/01 02:40:05;;;;;;;9.47;6.03;;;8.60;1.00;;;;;;5066548;28;20591;-59
2022/05/01 02:42:32;;;;;;;10.17;6.47;;;8.70;1.00;;;;;;5068758;28;20611;-58
2022/05/01 02:44:59;;;;;;;9.90;6.43;;;8.70;1.00;;;;;;5064628;28;20289;-59
2022/05/01 02:47:26;;;;;;;9.50;6.60;;;8.70;1.00;;;;;;5067127;28;20214;-59
2022/05/01 02:49:53;;;;;;;8.67;6.73;;;8.80;1.00;;;;;;5068146;28;20874;-60
2022/05/01 02:52:23;;;;;;;7.50;6.07;;;8.70;1.00;;;;;;5067499;28;20198;-59
2022/05/01 02:54:50;;;;;;;11.03;6.37;;;8.80;1.00;;;;;;5064580;28;20217;-58
2022/05/01 02:57:17;;;;;;;11.63;8.80;;;8.80;1.00;;;;;;5066427;28;20635;-58
2022/05/01 02:59:44;;;;;;;10.60;7.67;;;8.70;1.00;;;;;;5068209;28;20215;-58
2022/05/01 03:02:11;;;;;;;9.63;7.50;;;8.60;1.00;;;;;;5066554;28;20227;-58
2022/05/01 03:04:39;;;;;;;7.33;6.63;;;8.40;1.00;;;;;;5067976;28;20218;-58
2022/05/01 03:07:07;;;;;;;8.23;6.30;;;8.50;1.00;;;;;;5068778;28;20187;-58
2022/05/01 03:09:34;;;;;;;8.10;6.70;;;8.60;1.00;;;;;;5070026;28;20187;-57
2022/05/01 03:12:03;;;;;;;8.57;6.50;;;8.70;1.00;;;;;;5066138;28;20199;-58
2022/05/01 03:14:29;;;;;;;7.70;6.90;;;8.80;1.00;;;;;;5050844;28;20260;-57
2022/05/01 03:16:57;;;;;;;9.27;6.87;;;8.70;1.00;;;;;;5070044;28;20905;-58
2022/05/01 03:22:16;;;;;;;10.67;7.50;;;8.60;1.00;;;;;;5071200;28;20282;-58
2022/05/01 03:24:43;;;;;;;10.40;7.07;;;8.30;1.00;;;;;;5069523;28;20191;-58
2022/05/01 03:27:13;;;;;;;8.47;7.50;;;8.20;1.00;;;;;;5070981;28;20207;-58
2022/05/01 03:29:40;;;;;;;7.80;6.77;;;8.40;1.00;;;;;;5066124;28;20230;-59
2022/05/01 03:32:09;;;;;;;9.30;7.97;;;8.50;1.00;;;;;;5071589;28;20237;-58
2022/05/01 03:34:39;;;;;;;9.60;6.87;;;8.60;1.00;;;;;;5068340;28;20215;-59
2022/05/01 03:37:07;;;;;;;9.90;7.33;;;8.70;1.00;;;;;;5071045;28;20191;-59
2022/05/01 03:39:36;;;;;;;10.03;6.83;;;8.70;1.00;;;;;;5069805;28;20210;-59
2022/05/01 03:42:04;;;;;;;7.90;6.70;;;8.70;1.00;;;;;;5071161;28;20199;-58
2022/05/01 03:44:31;;;;;;;8.17;6.20;;;8.70;1.00;;;;;;5069245;28;20194;-58
2022/05/01 03:46:58;;;;;;;7.63;6.37;;;8.80;1.00;;;;;;5071598;28;20282;-59
2022/05/01 03:49:25;;;;;;;8.20;6.40;;;8.80;1.00;;;;;;5052270;28;20223;-59
2022/05/01 03:51:52;;;;;;;9.90;6.30;;;8.80;1.00;;;;;;5067161;28;20747;-58
2022/05/01 03:54:20;;;;;;;7.77;6.87;;;8.80;1.00;;;;;;5068669;28;20600;-59
2022/05/01 03:56:46;;;;;;;11.07;8.60;;;8.80;1.00;;;;;;5070638;28;20191;-59
2022/05/01 03:59:14;;;;;;;7.67;6.40;;;8.50;1.00;;;;;;5067533;28;20635;-58
2022/05/01 04:01:42;;;;;;;8.03;6.53;;;8.30;1.00;;;;;;5070723;28;20237;-58
2022/05/01 04:04:09;;;;;;;13.43;11.03;;;8.40;1.00;;;;;;5068693;28;20190;-58
2022/05/01 04:06:37;;;;;;;9.73;7.07;;;8.60;1.00;;;;;;5069185;28;20199;-59
2022/05/01 04:09:04;;;;;;;7.57;6.67;;;8.60;1.00;;;;;;5068554;28;20305;-59
2022/05/01 04:11:30;;;;;;;11.00;7.47;;;8.70;1.00;;;;;;5069177;28;20761;-60
2022/05/01 04:13:57;;;;;;;8.87;7.17;;;8.90;1.00;;;;;;5069438;28;20236;-59
2022/05/01 04:16:24;;;;;;;10.57;8.70;;;8.90;1.00;;;;;;5071007;28;20187;-59
2022/05/01 04:18:51;;;;;;;9.40;6.93;;;8.80;1.00;;;;;;5065785;28;20210;-59
2022/05/01 04:21:19;;;;;;;11.63;7.60;;;8.50;1.00;;;;;;5067055;28;20198;-59
2022/05/01 04:23:46;;;;;;;10.20;7.80;;;8.50;1.00;;;;;;5068701;28;20264;-59
2022/05/01 04:26:13;;;;;;;8.57;6.90;;;8.30;1.00;;;;;;5067347;28;20206;-58
2022/05/01 04:29:36;;;;;;;7.53;6.63;;;8.40;1.00;;;;;;5064951;28;20234;-58
2022/05/01 04:31:27;;;;;;;9.60;7.27;;;8.40;1.00;;;;;;5068637;28;20262;-59
2022/05/01 04:33:54;;;;;;;8.97;6.53;;;8.20;1.00;;;;;;5069273;28;20338;-59
2022/05/01 04:36:21;;;;;;;10.27;7.17;;;7.80;1.00;;;;;;5041899;28;20736;-58
2022/05/01 04:38:48;;;;;;;9.77;7.33;;;7.80;1.00;;;;;;5068640;28;20250;-58
2022/05/01 04:41:18;;;;;;;9.33;7.43;;;7.80;1.00;;;;;;5070238;28;20199;-58
2022/05/01 04:43:45;;;;;;;7.73;6.93;;;7.90;1.00;;;;;;5068805;28;20203;-58
2022/05/01 04:46:11;;;;;;;9.00;7.93;;;7.90;1.00;;;;;;5043491;28;20206;-58
2022/05/01 04:48:38;;;;;;;10.27;7.40;;;8.00;1.00;;;;;;5059759;28;20225;-58
2022/05/01 04:51:05;;;;;;;11.70;8.13;;;8.20;1.00;;;;;;5065593;28;20224;-59
2022/05/01 04:53:33;;;;;;;8.80;7.90;;;8.50;1.00;;;;;;5066119;28;20281;-59
2022/05/01 04:57:04;;;;;;;8.37;7.20;;;8.80;1.00;;;;;;5048322;28;20195;-59
2022/05/01 04:58:47;;;;;;;8.40;6.77;;;9.00;1.00;;;;;;5052616;28;20229;-58
2022/05/01 05:01:15;;;;;;;7.87;6.70;;;9.20;1.00;;;;;;5069345;28;20238;-59
2022/05/01 05:03:42;;;;;;;10.63;7.10;;;9.40;1.00;;;;;;5066378;28;20226;-59
2022/05/01 05:06:09;;;;;;;8.17;6.40;;;9.50;1.00;;;;;;5065041;28;20205;-58
2022/05/01 05:11:22;;;;;;;8.07;6.83;;;9.60;1.00;;;;;;5065692;28;20218;-58
2022/05/01 05:13:49;;;;;;;10.47;8.70;;;9.60;1.00;;;;;;5068620;28;20195;-58
2022/05/01 05:16:15;;;;;;;15.33;12.17;;;9.70;1.00;;;;;;5067698;28;20278;-57
2022/05/01 05:18:42;;;;;;;12.07;9.27;;;9.90;1.00;;;;;;5044144;28;20924;-57
2022/05/01 05:21:10;;;;;;;10.00;7.67;;;10.10;1.00;;;;;;5066891;28;20991;-57
2022/05/01 05:23:36;;;;;;;10.17;6.80;;;10.30;1.00;;;;;;5067188;28;20338;-58
2022/05/01 05:26:03;;;;;;;9.53;6.93;;;10.60;1.00;;;;;;5048382;28;20198;-58
2022/05/01 05:28:30;;;;;;;9.03;6.80;;;10.90;1.00;;;;;;5068040;28;20309;-58
2022/05/01 05:30:57;;;;;;;9.17;6.07;;;11.10;1.00;;;;;;5067962;28;20195;-59
2022/05/01 05:33:24;;;;;;;7.20;6.17;;;11.20;1.00;;;;;;5067496;28;20190;-58
2022/05/01 05:35:51;;;;;;;8.53;6.63;;;11.20;1.00;;;;;;5066329;28;20198;-58
2022/05/01 05:38:18;;;;;;;8.13;6.33;;;11.20;1.00;;;;;;5065909;28;20242;-57
2022/05/01 05:40:45;;;;;;;9.60;6.43;;;11.30;1.00;;;;;;5068279;28;20203;-58
2022/05/01 05:43:13;;;;;;;8.90;6.60;;;11.40;1.00;;;;;;5064266;28;20191;-58
2022/05/01 05:45:40;;;;;;;6.77;5.80;;;11.40;1.00;;;;;;5065278;28;20203;-57
2022/05/01 05:48:07;;;;;;;8.83;5.93;;;11.50;1.00;;;;;;5066528;28;20632;-57
2022/05/01 05:50:34;;;;;;;6.80;6.10;;;11.60;1.00;;;;;;5066929;28;20222;-60
2022/05/01 05:53:00;;;;;;;10.60;6.57;;;11.80;1.00;;;;;;5063107;28;20225;-57
2022/05/01 05:55:33;;;;;;;8.33;6.30;;;12.20;1.00;;;;;;5062866;28;20677;-58
2022/05/01 05:58:01;;;;;;;8.40;5.80;;;13.40;1.00;;;;;;5067300;28;20186;-58
2022/05/01 06:00:28;;;;;;;8.13;5.93;;;13.90;99.90;;;;;;5066983;28;20211;-58
2022/05/01 06:02:55;;;;;;;8.40;6.33;;;13.90;99.90;;;;;;5049245;28;20203;-58
2022/05/01 06:05:22;;;;;;;10.13;6.77;;;13.90;99.90;;;;;;5065125;28;20195;-58
2022/05/01 06:07:49;;;;;;;10.37;6.67;;;13.70;99.90;;;;;;5062422;28;20194;-58
2022/05/01 06:10:16;;;;;;;7.83;6.20;;;13.40;99.90;;;;;;5066771;28;20225;-57
2022/05/01 06:12:44;;;;;;;7.53;6.23;;;13.80;99.90;;;;;;5066233;28;20731;-57
2022/05/01 06:15:18;;;;;;;7.90;6.40;;;14.40;99.90;;;;;;5068150;28;20178;-57
2022/05/01 06:17:45;;;;;;;6.60;5.53;;;15.00;99.90;;;;;;5066102;28;20701;-57
2022/05/01 06:20:11;;;;;;;6.70;6.00;;;15.70;99.90;;;;;;5064599;28;20195;-57
2022/05/01 06:22:38;;;;;;;6.80;5.93;;;17.10;99.90;;;;;;5064638;28;20244;-57
2022/05/01 06:25:06;;;;;;;7.05;6.35;;;17.30;99.90;;;;;;5046938;28;20544;-57
2022/05/01 06:27:33;;;;;;;6.45;5.68;;;17.50;99.90;;;;;;5066919;28;20190;-57
2022/05/01 06:30:00;;;;;;;7.43;5.70;;;17.80;99.90;;;;;;5067353;28;20272;-58
2022/05/01 06:32:27;;;;;;;6.78;6.07;;;17.10;99.90;;;;;;5063979;28;20254;-57
2022/05/01 06:34:54;;;;;;;7.65;6.75;;;17.30;99.90;;;;;;5065523;28;20273;-58
2022/05/01 06:37:21;;;;;;;9.10;6.63;;;16.70;99.90;;;;;;5049323;28;20754;-57
2022/05/01 06:39:49;;;;;;;10.87;6.63;;;15.90;99.90;;;;;;5069526;28;20214;-57
2022/05/01 06:42:17;;;;;;;7.28;6.30;;;16.20;99.90;;;;;;5070111;28;20249;-57
2022/05/01 06:44:43;;;;;;;7.35;6.25;;;16.40;99.90;;;;;;5070389;28;20274;-57
2022/05/01 06:47:13;;;;;;;9.18;6.47;;;16.90;99.90;;;;;;5069317;28;20802;-57
2022/05/01 06:49:39;;;;;;;7.25;6.55;;;16.90;99.90;;;;;;5066461;28;20290;-57
2022/05/01 06:52:06;;;;;;;8.73;6.78;;;17.40;99.90;;;;;;5069518;28;20471;-57
2022/05/01 06:54:34;;;;;;;8.25;6.47;;;16.90;99.90;;;;;;5066778;28;20641;-57
2022/05/01 06:57:00;;;;;;;9.05;8.15;;;16.70;99.90;;;;;;5069454;28;20286;-57
2022/05/01 06:59:27;;;;;;;7.82;7.07;;;17.30;99.90;;;;;;5069863;28;20191;-57
2022/05/01 07:01:54;;;;;;;7.78;6.97;;;17.40;99.90;;;;;;5068656;28;20230;-57
2022/05/01 07:04:21;;;;;;;8.25;6.15;;;18.40;99.90;;;;;;5068401;28;20737;-57
2022/05/01 07:06:48;;;;;;;7.57;6.53;;;19.40;99.90;;;;;;5050639;28;20574;-57
2022/05/01 07:09:15;;;;;;;7.30;6.30;;;20.20;99.90;;;;;;5066702;28;20745;-57
2022/05/01 07:11:42;;;;;;;8.60;6.07;;;21.20;99.90;;;;;;5070419;28;20567;-57
2022/05/01 07:14:09;;;;;;;12.63;6.20;;;22.40;99.90;;;;;;5068894;28;20199;-57
2022/05/01 07:16:36;;;;;;;6.32;5.63;;;22.10;99.90;;;;;;5069312;28;20211;-57
2022/05/01 07:19:03;;;;;;;6.82;6.18;;;22.50;99.90;;;;;;5069114;28;20901;-57
2022/05/01 07:21:30;;;;;;;7.07;5.75;;;23.80;99.90;;;;;;5066853;28;20233;-57
2022/05/01 07:23:57;;;;;;;8.15;5.85;;;24.20;99.90;;;;;;5064811;28;20705;-57
2022/05/01 07:26:25;;;;;;;6.05;5.45;;;24.10;99.90;;;;;;5067104;28;20249;-57
2022/05/01 07:28:52;;;;;;;10.07;5.78;;;25.30;99.90;;;;;;5052816;28;20215;-57
2022/05/01 07:31:19;;;;;;;7.18;6.32;;;23.70;99.90;;;;;;5044650;28;20678;-57
2022/05/01 07:33:47;;;;;;;7.15;5.47;;;23.40;99.90;;;;;;5067923;28;20229;-57
2022/05/01 07:36:14;;;;;;;7.07;6.38;;;24.80;99.90;;;;;;5068414;28;20201;-57
2022/05/01 07:38:40;;;;;;;7.13;6.25;;;26.40;99.90;;;;;;5066693;28;20296;-57
2022/05/01 07:41:08;;;;;;;11.38;5.55;;;26.50;99.90;;;;;;5069150;28;20213;-57
2022/05/01 07:43:36;;;;;;;7.95;6.50;;;28.90;99.90;;;;;;5052380;28;20239;-57
2022/05/01 07:46:03;;;;;;;7.05;6.05;;;28.90;99.90;;;;;;5067955;28;20203;-57
2022/05/01 07:48:31;;;;;;;9.77;5.53;;;30.00;99.90;;;;;;5067598;28;20255;-57
2022/05/01 07:50:58;;;;;;;5.72;5.22;;;29.50;99.90;;;;;;5067425;28;20223;-57
2022/05/01 07:53:25;;;;;;;6.95;5.63;;;28.80;99.90;;;;;;5067937;28;20689;-57
2022/05/01 07:55:52;;;;;;;8.82;6.30;;;29.00;99.90;;;;;;5068463;28;20662;-57
2022/05/01 07:58:20;;;;;;;6.00;5.13;;;29.50;99.90;;;;;;5070774;28;20198;-57
2022/05/01 08:00:47;;;;;;;6.85;5.90;;;28.50;99.90;;;;;;5049582;28;20206;-57
2022/05/01 08:06:00;;;;;;;8.00;5.75;;;27.10;99.90;;;;;;5067417;28;20743;-58
2022/05/01 08:08:33;;;;;;;7.28;6.57;;;27.60;99.90;;;;;;5066245;28;20213;-58
2022/05/01 08:11:00;;;;;;;7.57;6.22;;;25.10;99.90;;;;;;5045023;28;20191;-58
2022/05/01 08:13:27;;;;;;;6.05;5.45;;;26.50;99.90;;;;;;5068992;28;20278;-59
2022/05/01 08:15:54;;;;;;;7.35;5.50;;;25.70;99.90;;;;;;5048900;28;20778;-58
2022/05/01 08:21:10;;;;;;;6.25;5.63;;;25.00;99.90;;;;;;5043848;28;20237;-58
2022/05/01 08:23:38;;;;;;;10.13;5.50;;;27.70;99.90;;;;;;5068542;28;20265;-59
2022/05/01 08:26:07;;;;;;;5.95;5.35;;;29.90;99.90;;;;;;5068779;28;20202;-59
2022/05/01 08:28:35;;;;;;;6.10;5.50;;;29.30;99.90;;;;;;5064299;28;20273;-58
2022/05/01 08:31:03;;;;;;;7.93;5.45;;;25.10;99.90;;;;;;5067536;28;20233;-58
2022/05/01 08:33:30;;;;;;;8.00;6.22;;;26.20;99.90;;;;;;5049944;28;20221;-62
2022/05/01 08:36:02;;;;;;;7.10;6.10;;;27.20;99.90;;;;;;5041601;28;20206;-59
2022/05/01 08:38:30;;;;;;;9.20;5.20;;;29.00;99.90;;;;;;5065875;28;20210;-59
2022/05/01 08:40:57;;;;;;;5.65;4.93;;;29.10;99.90;;;;;;5069265;28;20195;-59
2022/05/01 08:43:26;;;;;;;6.43;5.68;;;30.60;99.90;;;;;;5068674;28;20194;-59
2022/05/01 08:45:53;;;;;;;8.25;5.50;;;29.20;99.90;;;;;;5067090;28;20224;-58
2022/05/01 08:49:05;;;;;;;7.57;5.53;;;29.50;99.90;;;;;;5070088;28;20737;-59
2022/05/01 08:51:42;;;;;;;7.85;5.90;;;30.00;99.90;;;;;;5067840;28;20256;-58
2022/05/01 08:54:12;;;;;;;8.23;5.88;;;28.20;99.90;;;;;;5066335;28;20198;-58
2022/05/01 08:56:41;;;;;;;8.27;5.30;;;26.70;99.90;;;;;;5046609;28;20256;-58
2022/05/01 08:59:14;;;;;;;5.97;4.82;;;27.30;99.90;;;;;;5068729;28;20734;-59
2022/05/01 09:01:42;;;;;;;6.93;5.18;;;27.70;99.90;;;;;;5067733;28;20264;-58
2022/05/01 09:04:12;;;;;;;6.97;5.57;;;25.80;99.90;;;;;;5064300;28;20230;-58
2022/05/01 09:06:42;;;;;;;6.20;5.60;;;24.20;99.90;;;;;;5065275;28;20202;-59
2022/05/01 09:09:11;;;;;;;6.90;6.30;;;21.90;99.90;;;;;;5066464;28;20245;-59
2022/05/01 09:14:26;;;;;;;7.38;6.10;;;21.20;99.90;;;;;;5065624;28;20673;-58
2022/05/01 09:17:15;;;;;;;10.35;5.43;;;21.90;99.90;;;;;;5067761;28;20183;-58
2022/05/01 09:19:44;;;;;;;8.52;6.22;;;21.80;99.90;;;;;;5069872;28;20230;-58
2022/05/01 09:22:12;;;;;;;6.00;5.45;;;22.10;99.90;;;;;;5064753;28;20202;-58
2022/05/01 09:24:39;;;;;;;7.03;5.93;;;22.30;99.90;;;;;;5066602;28;20740;-58
2022/05/01 09:27:24;;;;;;;9.07;6.35;;;21.70;99.90;;;;;;5067145;28;20203;-58
2022/05/01 09:30:07;;;;;;;7.38;5.88;;;21.20;99.90;;;;;;5062135;28;20934;-57
2022/05/01 09:32:38;;;;;;;7.75;5.43;;;21.00;99.90;;;;;;5062249;28;20226;-58
2022/05/01 09:35:07;;;;;;;7.70;5.63;;;21.50;99.90;;;;;;5062221;28;20179;-58
2022/05/01 09:37:34;;;;;;;9.07;5.97;;;20.80;99.90;;;;;;5046120;28;20190;-57
2022/05/01 09:40:00;;;;;;;6.63;5.47;;;21.30;99.90;;;;;;5062058;28;20325;-59
2022/05/01 09:42:34;;;;;;;6.57;5.35;;;22.60;99.90;;;;;;5052214;28;20195;-58
2022/05/01 09:45:11;;;;;;;7.32;5.82;;;22.80;99.90;;;;;;5062997;28;20195;-57
2022/05/01 09:47:40;;;;;;;7.20;4.63;;;22.80;99.90;;;;;;5061103;28;20218;-57
2022/05/01 09:50:08;;;;;;;7.55;4.85;;;23.10;99.90;;;;;;5060687;28;20300;-57
2022/05/01 09:52:54;;;;;;;6.22;5.00;;;22.40;99.90;;;;;;5061760;28;20223;-57
2022/05/01 09:55:21;;;;;;;5.80;4.80;;;20.60;99.90;;;;;;5058248;28;20186;-57
2022/05/01 09:57:48;;;;;;;5.55;4.90;;;20.20;99.90;;;;;;5058130;28;20214;-58
2022/05/01 10:00:37;;;;;;;6.95;4.50;;;19.80;99.90;;;;;;5062385;28;20195;-58
2022/05/01 10:03:23;;;;;;;7.00;4.80;;;19.30;99.90;;;;;;5061307;28;20268;-57
2022/05/01 10:05:52;;;;;;;5.53;4.30;;;18.40;99.90;;;;;;5061035;28;20202;-57
2022/05/01 10:08:20;;;;;;;8.60;4.95;;;17.60;99.90;;;;;;5066015;28;20214;-57
2022/05/01 10:10:49;;;;;;;6.03;4.43;;;18.00;99.90;;;;;;5063428;28;20203;-58
2022/05/01 10:13:17;;;;;;;7.38;4.90;;;18.30;99.90;;;;;;5029946;28;20225;-57
2022/05/01 10:16:04;;;;;;;6.03;4.90;;;18.10;99.90;;;;;;5049703;28;20202;-58
2022/05/01 10:18:31;;;;;;;5.15;4.65;;;18.30;99.90;;;;;;5063616;28;20278;-58
2022/05/01 10:20:58;;;;;;;6.78;5.10;;;18.50;99.90;;;;;;5067448;28;20218;-60
2022/05/01 10:23:26;;;;;;;5.20;4.68;;;18.50;99.90;;;;;;5067317;28;20195;-58
2022/05/01 10:26:13;;;;;;;6.00;4.55;;;18.40;99.90;;;;;;5063933;28;20677;-58
2022/05/01 10:29:28;;;;;;;5.35;4.45;;;18.70;99.90;;;;;;5040847;28;20194;-59
2022/05/01 10:32:23;;;;;;;4.80;4.30;;;19.70;99.90;;;;;;5064757;28;20694;-59
2022/05/01 10:35:28;;;;;;;6.18;4.80;;;19.90;99.90;;;;;;5066697;28;20277;-58
2022/05/01 10:38:26;;;;;;;7.68;5.45;;;20.80;99.90;;;;;;5064464;28;20222;-57
2022/05/01 10:40:55;;;;;;;8.32;5.15;;;21.40;99.90;;;;;;5065042;28;20329;-58
2022/05/01 10:43:28;;;;;;;4.95;4.47;;;20.50;99.90;;;;;;5042888;28;20925;-59
2022/05/01 10:46:00;;;;;;;7.82;5.15;;;21.60;99.90;;;;;;5065707;28;20218;-59
2022/05/01 10:48:39;;;;;;;7.10;5.20;;;22.50;99.90;;;;;;5048466;28;20230;-58
2022/05/01 10:51:29;;;;;;;5.90;4.93;;;23.00;99.90;;;;;;5046801;28;20772;-58
2022/05/01 10:54:14;;;;;;;6.10;5.47;;;24.30;99.90;;;;;;5064943;28;20621;-58
2022/05/01 10:57:02;;;;;;;7.85;4.68;;;25.30;99.90;;;;;;5065152;28;20213;-59
2022/05/01 10:59:38;;;;;;;5.57;5.00;;;22.90;99.90;;;;;;5061647;28;20205;-58
2022/05/01 11:02:35;;;;;;;5.15;4.65;;;22.70;99.90;;;;;;5045623;28;20194;-58
2022/05/01 11:05:03;;;;;;;5.85;5.28;;;22.80;99.90;;;;;;5069617;28;20194;-60
2022/05/01 11:07:33;;;;;;;5.78;5.20;;;21.00;99.90;;;;;;5064042;28;20264;-60
2022/05/01 11:10:00;;;;;;;8.63;5.05;;;19.80;99.90;;;;;;5068120;28;20206;-57
2022/05/01 11:12:30;;;;;;;5.75;5.00;;;20.20;99.90;;;;;;5070742;28;20179;-59
2022/05/01 11:15:04;;;;;;;7.65;4.95;;;20.90;99.90;;;;;;5069872;28;20256;-58
2022/05/01 11:17:39;;;;;;;7.03;5.18;;;20.80;99.90;;;;;;5069666;28;20199;-59
2022/05/01 11:20:18;;;;;;;6.65;5.13;;;20.70;99.90;;;;;;5046940;28;20230;-58
2022/05/01 11:22:49;;;;;;;6.97;5.43;;;19.90;99.90;;;;;;5062074;28;20201;-59
2022/05/01 11:25:38;;;;;;;5.95;5.30;;;20.90;99.90;;;;;;5071278;28;20238;-58
2022/05/01 11:28:05;;;;;;;6.95;5.63;;;20.90;99.90;;;;;;5048495;28;21052;-58
2022/05/01 11:30:32;;;;;;;9.23;5.35;;;21.00;99.90;;;;;;5063591;28;20215;-58
2022/05/01 11:33:05;;;;;;;7.57;6.55;;;19.40;99.90;;;;;;5071609;28;20230;-58
2022/05/01 11:36:04;;;;;;;7.90;5.45;;;18.90;99.90;;;;;;5055388;28;20198;-58
2022/05/01 11:38:37;;;;;;;8.63;5.90;;;19.30;99.90;;;;;;5066565;28;20207;-58
2022/05/01 11:41:06;;;;;;;7.13;6.35;;;19.40;99.90;;;;;;5058664;28;20183;-58
2022/05/01 11:43:35;;;;;;;6.13;5.43;;;19.90;99.90;;;;;;5048335;28;20210;-58
2022/05/01 11:46:04;;;;;;;6.70;5.05;;;20.40;99.90;;;;;;5068421;28;20219;-59
2022/05/01 11:48:31;;;;;;;5.80;5.18;;;21.20;99.90;;;;;;5066700;28;20686;-59
2022/05/01 11:50:59;;;;;;;6.78;5.88;;;22.30;99.90;;;;;;5067876;28;20260;-60
2022/05/01 11:53:31;;;;;;;7.03;5.20;;;22.80;99.90;;;;;;5067863;28;20255;-59
2022/05/01 12:04:35;;;;;;;7.82;5.95;;;22.20;99.90;;;;;;5071650;28;20213;-58
2022/05/01 12:07:15;;;;;;;8.40;5.47;;;23.80;99.90;;;;;;5067414;28;20207;-58
2022/05/01 12:09:44;;;;;;;7.20;5.75;;;24.10;99.90;;;;;;5050401;28;20214;-58
2022/05/01 12:12:13;;;;;;;7.40;6.18;;;24.80;99.90;;;;;;5069612;28;20183;-58
2022/05/01 12:14:42;;;;;;;6.38;5.78;;;25.60;99.90;;;;;;5061835;28;20250;-58
2022/05/01 12:17:14;;;;;;;8.65;5.78;;;24.20;99.90;;;;;;5052413;28;20210;-58
2022/05/01 12:19:43;;;;;;;8.48;5.38;;;21.90;99.90;;;;;;5044817;28;20195;-58
2022/05/01 12:22:14;;;;;;;9.13;5.75;;;20.80;99.90;;;;;;5073899;28;20210;-58
2022/05/01 12:24:43;;;;;;;10.95;5.80;;;20.00;99.90;;;;;;5039555;28;20971;-58
2022/05/01 12:27:15;;;;;;;6.95;6.00;;;19.30;99.90;;;;;;5066382;28;20192;-59
2022/05/01 12:30:00;;;;;;;10.00;5.75;;;18.70;99.90;;;;;;5055693;28;20199;-59
2022/05/01 12:32:28;;;;;;;6.88;5.30;;;19.50;99.90;;;;;;5066038;28;20304;-59
2022/05/01 12:34:57;;;;;;;6.65;5.85;;;20.60;99.90;;;;;;5069175;28;20211;-60
2022/05/01 12:37:32;;;;;;;7.03;5.13;;;20.80;99.90;;;;;;5050120;28;20696;-59
2022/05/01 12:40:09;;;;;;;6.68;5.95;;;21.20;99.90;;;;;;5069878;28;20218;-60
2022/05/01 12:45:44;;;;;;;6.70;5.60;;;20.10;99.90;;;;;;5070084;28;20237;-62
2022/05/01 12:48:14;;;;;;;8.18;6.35;;;19.30;99.90;;;;;;5071969;28;20205;-59
2022/05/01 12:50:43;;;;;;;9.35;7.03;;;18.10;99.90;;;;;;5067940;28;20319;-59
2022/05/01 12:53:24;;;;;;;8.18;6.40;;;18.00;99.90;;;;;;5065082;28;20191;-60
2022/05/01 12:55:53;;;;;;;6.85;5.97;;;18.50;99.90;;;;;;5059940;28;20858;-58
2022/05/01 12:58:31;;;;;;;7.50;6.70;;;18.40;99.90;;;;;;5068307;28;20209;-59
2022/05/01 13:00:59;;;;;;;6.68;5.88;;;19.10;99.90;;;;;;5071386;28;20744;-59
2022/05/01 13:03:28;;;;;;;9.30;6.97;;;20.30;99.90;;;;;;5069987;28;20199;-59
2022/05/01 13:06:00;;;;;;;6.38;5.68;;;21.00;99.90;;;;;;5056816;28;20259;-59
2022/05/01 13:08:30;;;;;;;6.65;5.95;;;20.80;99.90;;;;;;5046808;28;20210;-59
2022/05/01 13:11:13;;;;;;;10.48;9.20;;;20.50;99.90;;;;;;5053142;28;20218;-59
2022/05/01 13:13:58;;;;;;;10.95;5.70;;;20.70;99.90;;;;;;5054420;28;20226;-57
2022/05/01 13:16:31;;;;;;;8.23;6.03;;;21.00;99.90;;;;;;5058578;28;21158;-63
2022/05/01 13:19:10;;;;;;;6.43;5.25;;;20.50;99.90;;;;;;5073620;28;20194;-59
2022/05/01 13:21:46;;;;;;;9.45;6.60;;;20.60;99.90;;;;;;5056268;28;20372;-58
2022/05/01 13:24:29;;;;;;;6.95;5.40;;;19.80;99.90;;;;;;5067541;28;20195;-59
2022/05/01 13:27:00;;;;;;;8.52;6.65;;;19.70;99.90;;;;;;5057642;28;20186;-57
2022/05/01 13:29:31;;;;;;;9.95;6.18;;;19.50;99.90;;;;;;5071348;28;21740;-60
2022/05/01 13:31:59;;;;;;;6.07;5.47;;;20.00;99.90;;;;;;5069144;28;20235;-59
2022/05/01 13:34:27;;;;;;;7.68;6.90;;;20.10;99.90;;;;;;5068606;28;20229;-58
2022/05/01 13:36:55;;;;;;;6.20;5.53;;;20.60;99.90;;;;;;5067750;28;20183;-59
2022/05/01 13:39:22;;;;;;;9.80;5.70;;;21.10;99.90;;;;;;5068221;28;20210;-62